sensor_id;sensor_type;location;lat;lon;timestamp;temperature;humidity
30097;DHT22;16915;51.466;3.610;2023-02-25T00:02:07;4.10;99.90
30097;DHT22;16915;51.466;3.610;2023-02-25T00:04:33;4.00;99.90
30097;DHT22;16915;51.466;3.610;2023-02-25T00:06:59;3.90;99.90
30097;DHT22;16915;51.466;3.610;2023-02-25T00:09:25;3.80;99.90
30097;DHT22;16915;51.466;3.610;2023-02-25T00:11:51;3.90;99.90
30097;DHT22;16915;51.466;3.610;2023-02-25T00:14:17;3.80;99.90
30097;DHT22;16915;51.466;3.610;2023-02-25T00:16:42;3.80;99.90
30097;DHT22;16915;51.466;3.610;2023-02-25T00:19:08;3.80;99.90
30097;DHT22;16915;51.466;3.610;2023-02-25T00:21:35;3.80;99.90
30097;DHT22;16915;51.466;3.610;2023-02-25T00:24:00;3.90;99.90
30097;DHT22;16915;51.466;3.610;2023-02-25T00:26:26;3.90;99.90
30097;DHT22;16915;51.466;3.610;2023-02-25T00:28:52;4.00;99.90
30097;DHT22;16915;51.466;3.610;2023-02-25T00:31:20;4.10;99.90
30097;DHT22;16915;51.466;3.610;2023-02-25T00:33:47;4.10;99.90
30097;DHT22;16915;51.466;3.610;2023-02-25T00:36:15;4.20;99.90
30097;DHT22;16915;51.466;3.610;2023-02-25T00:38:56;4.30;99.90
30097;DHT22;16915;51.466;3.610;2023-02-25T00:41:25;4.30;99.90
30097;DHT22;16915;51.466;3.610;2023-02-25T00:43:59;4.40;99.90
30097;DHT22;16915;51.466;3.610;2023-02-25T00:46:25;4.50;99.90
30097;DHT22;16915;51.466;3.610;2023-02-25T00:48:52;4.60;99.90
30097;DHT22;16915;51.466;3.610;2023-02-25T00:51:23;4.60;99.90
30097;DHT22;16915;51.466;3.610;2023-02-25T00:53:51;4.60;99.90
30097;DHT22;16915;51.466;3.610;2023-02-25T00:56:16;4.60;99.90
30097;DHT22;16915;51.466;3.610;2023-02-25T00:58:43;4.70;99.90
30097;DHT22;16915;51.466;3.610;2023-02-25T01:01:26;4.80;99.90
30097;DHT22;16915;51.466;3.610;2023-02-25T01:03:53;4.90;99.90
30097;DHT22;16915;51.466;3.610;2023-02-25T01:06:21;4.80;99.90
30097;DHT22;16915;51.466;3.610;2023-02-25T01:08:47;4.80;99.90
30097;DHT22;16915;51.466;3.610;2023-02-25T01:11:16;4.70;99.90
30097;DHT22;16915;51.466;3.610;2023-02-25T01:13:51;4.60;99.90
30097;DHT22;16915;51.466;3.610;2023-02-25T01:16:20;4.50;99.90
30097;DHT22;16915;51.466;3.610;2023-02-25T01:18:46;4.40;99.90
30097;DHT22;16915;51.466;3.610;2023-02-25T01:21:17;4.50;99.90
30097;DHT22;16915;51.466;3.610;2023-02-25T01:23:47;4.50;99.90
30097;DHT22;16915;51.466;3.610;2023-02-25T01:26:14;4.40;99.90
30097;DHT22;16915;51.466;3.610;2023-02-25T01:28:40;4.40;99.90
30097;DHT22;16915;51.466;3.610;2023-02-25T01:31:06;4.40;99.90
30097;DHT22;16915;51.466;3.610;2023-02-25T01:33:33;4.40;99.90
30097;DHT22;16915;51.466;3.610;2023-02-25T01:36:04;4.50;99.90
30097;DHT22;16915;51.466;3.610;2023-02-25T01:38:30;4.60;99.90
30097;DHT22;16915;51.466;3.610;2023-02-25T01:40:57;4.60;99.90
30097;DHT22;16915;51.466;3.610;2023-02-25T01:43:23;4.60;99.90
30097;DHT22;16915;51.466;3.610;2023-02-25T01:45:48;4.70;99.90
30097;DHT22;16915;51.466;3.610;2023-02-25T01:48:17;4.70;99.90
30097;DHT22;16915;51.466;3.610;2023-02-25T01:50:56;4.70;99.90
30097;DHT22;16915;51.466;3.610;2023-02-25T01:53:26;4.70;99.90
30097;DHT22;16915;51.466;3.610;2023-02-25T01:55:54;4.80;99.90
30097;DHT22;16915;51.466;3.610;2023-02-25T01:58:22;4.70;99.90
30097;DHT22;16915;51.466;3.610;2023-02-25T02:00:47;4.70;99.90
30097;DHT22;16915;51.466;3.610;2023-02-25T02:03:13;4.70;99.90
30097;DHT22;16915;51.466;3.610;2023-02-25T02:05:54;4.60;99.90
30097;DHT22;16915;51.466;3.610;2023-02-25T02:08:22;4.60;99.90
30097;DHT22;16915;51.466;3.610;2023-02-25T02:10:48;4.60;99.90
30097;DHT22;16915;51.466;3.610;2023-02-25T02:13:14;4.60;99.90
30097;DHT22;16915;51.466;3.610;2023-02-25T02:16:28;4.60;99.90
30097;DHT22;16915;51.466;3.610;2023-02-25T02:18:34;4.60;99.90
30097;DHT22;16915;51.466;3.610;2023-02-25T02:21:21;4.60;99.90
30097;DHT22;16915;51.466;3.610;2023-02-25T02:32:07;4.60;99.90
30097;DHT22;16915;51.466;3.610;2023-02-25T02:34:48;4.60;99.90
30097;DHT22;16915;51.466;3.610;2023-02-25T02:45:40;4.80;99.90
30097;DHT22;16915;51.466;3.610;2023-02-25T02:48:45;4.80;99.90
30097;DHT22;16915;51.466;3.610;2023-02-25T02:51:13;4.90;99.90
30097;DHT22;16915;51.466;3.610;2023-02-25T02:53:43;5.00;99.90
30097;DHT22;16915;51.466;3.610;2023-02-25T02:56:12;5.00;99.90
30097;DHT22;16915;51.466;3.610;2023-02-25T02:58:50;5.00;99.90
30097;DHT22;16915;51.466;3.610;2023-02-25T03:01:20;5.00;99.90
30097;DHT22;16915;51.466;3.610;2023-02-25T03:03:48;5.00;99.90
30097;DHT22;16915;51.466;3.610;2023-02-25T03:06:22;5.00;99.90
30097;DHT22;16915;51.466;3.610;2023-02-25T03:08:55;5.10;99.90
30097;DHT22;16915;51.466;3.610;2023-02-25T03:11:21;5.10;99.90
30097;DHT22;16915;51.466;3.610;2023-02-25T03:13:47;5.20;99.90
30097;DHT22;16915;51.466;3.610;2023-02-25T03:16:37;5.20;99.90
30097;DHT22;16915;51.466;3.610;2023-02-25T03:19:16;5.20;99.90
30097;DHT22;16915;51.466;3.610;2023-02-25T03:21:51;5.20;99.90
30097;DHT22;16915;51.466;3.610;2023-02-25T03:24:22;5.30;99.90
30097;DHT22;16915;51.466;3.610;2023-02-25T03:26:50;5.30;99.90
30097;DHT22;16915;51.466;3.610;2023-02-25T03:29:18;5.30;99.90
30097;DHT22;16915;51.466;3.610;2023-02-25T03:31:49;5.30;99.90
30097;DHT22;16915;51.466;3.610;2023-02-25T03:34:26;5.30;99.90
30097;DHT22;16915;51.466;3.610;2023-02-25T03:36:59;5.30;99.90
30097;DHT22;16915;51.466;3.610;2023-02-25T03:39:30;5.30;99.90
30097;DHT22;16915;51.466;3.610;2023-02-25T03:41:58;5.30;99.90
30097;DHT22;16915;51.466;3.610;2023-02-25T03:44:34;5.30;99.90
30097;DHT22;16915;51.466;3.610;2023-02-25T03:47:03;5.30;99.90
30097;DHT22;16915;51.466;3.610;2023-02-25T03:49:34;5.40;99.90
30097;DHT22;16915;51.466;3.610;2023-02-25T03:52:04;5.40;99.90
30097;DHT22;16915;51.466;3.610;2023-02-25T03:54:31;5.40;99.90
30097;DHT22;16915;51.466;3.610;2023-02-25T03:56:56;5.40;99.90
30097;DHT22;16915;51.466;3.610;2023-02-25T03:59:22;5.40;99.90
30097;DHT22;16915;51.466;3.610;2023-02-25T04:01:53;5.40;99.90
30097;DHT22;16915;51.466;3.610;2023-02-25T04:04:20;5.40;99.90
30097;DHT22;16915;51.466;3.610;2023-02-25T04:06:45;5.50;99.90
30097;DHT22;16915;51.466;3.610;2023-02-25T04:09:12;5.60;99.90
30097;DHT22;16915;51.466;3.610;2023-02-25T04:11:37;5.50;99.90
30097;DHT22;16915;51.466;3.610;2023-02-25T04:14:03;5.50;99.90
30097;DHT22;16915;51.466;3.610;2023-02-25T04:16:28;5.40;99.90
30097;DHT22;16915;51.466;3.610;2023-02-25T04:18:54;5.30;99.90
30097;DHT22;16915;51.466;3.610;2023-02-25T04:21:32;5.20;99.90
30097;DHT22;16915;51.466;3.610;2023-02-25T04:23:59;5.20;99.90
30097;DHT22;16915;51.466;3.610;2023-02-25T04:26:26;5.10;99.90
30097;DHT22;16915;51.466;3.610;2023-02-25T04:28:52;5.10;99.90
30097;DHT22;16915;51.466;3.610;2023-02-25T04:31:18;5.00;99.90
30097;DHT22;16915;51.466;3.610;2023-02-25T04:33:43;5.10;99.90
30097;DHT22;16915;51.466;3.610;2023-02-25T04:36:26;5.00;99.90
30097;DHT22;16915;51.466;3.610;2023-02-25T04:38:52;5.00;99.90
30097;DHT22;16915;51.466;3.610;2023-02-25T04:41:18;5.00;99.90
30097;DHT22;16915;51.466;3.610;2023-02-25T04:43:44;5.00;99.90
30097;DHT22;16915;51.466;3.610;2023-02-25T04:46:10;4.90;99.90
30097;DHT22;16915;51.466;3.610;2023-02-25T04:48:36;4.90;99.90
30097;DHT22;16915;51.466;3.610;2023-02-25T04:51:04;4.90;99.90
30097;DHT22;16915;51.466;3.610;2023-02-25T04:53:31;4.90;99.90
30097;DHT22;16915;51.466;3.610;2023-02-25T04:55:56;4.90;99.90
30097;DHT22;16915;51.466;3.610;2023-02-25T04:58:25;5.00;99.90
30097;DHT22;16915;51.466;3.610;2023-02-25T05:00:51;5.10;99.90
30097;DHT22;16915;51.466;3.610;2023-02-25T05:03:17;5.20;99.90
30097;DHT22;16915;51.466;3.610;2023-02-25T05:05:43;5.30;99.90
30097;DHT22;16915;51.466;3.610;2023-02-25T05:08:08;5.30;99.90
30097;DHT22;16915;51.466;3.610;2023-02-25T05:10:34;5.30;99.90
30097;DHT22;16915;51.466;3.610;2023-02-25T05:12:59;5.30;99.90
30097;DHT22;16915;51.466;3.610;2023-02-25T05:15:25;5.40;99.90
30097;DHT22;16915;51.466;3.610;2023-02-25T05:17:50;5.40;99.90
30097;DHT22;16915;51.466;3.610;2023-02-25T05:20:16;5.40;99.90
30097;DHT22;16915;51.466;3.610;2023-02-25T05:22:42;5.40;99.90
30097;DHT22;16915;51.466;3.610;2023-02-25T05:25:08;5.30;99.90
30097;DHT22;16915;51.466;3.610;2023-02-25T05:27:34;5.30;99.90
30097;DHT22;16915;51.466;3.610;2023-02-25T05:30:00;5.30;99.90
30097;DHT22;16915;51.466;3.610;2023-02-25T05:32:26;5.30;99.90
30097;DHT22;16915;51.466;3.610;2023-02-25T05:34:51;5.40;99.90
30097;DHT22;16915;51.466;3.610;2023-02-25T05:37:17;5.30;99.90
30097;DHT22;16915;51.466;3.610;2023-02-25T05:39:42;5.30;99.90
30097;DHT22;16915;51.466;3.610;2023-02-25T05:42:08;5.30;99.90
30097;DHT22;16915;51.466;3.610;2023-02-25T05:44:34;5.30;99.90
30097;DHT22;16915;51.466;3.610;2023-02-25T05:46:59;5.30;99.90
30097;DHT22;16915;51.466;3.610;2023-02-25T05:49:25;5.30;99.90
30097;DHT22;16915;51.466;3.610;2023-02-25T05:51:50;5.30;99.90
30097;DHT22;16915;51.466;3.610;2023-02-25T05:54:16;5.30;99.90
30097;DHT22;16915;51.466;3.610;2023-02-25T05:56:41;5.20;99.90
30097;DHT22;16915;51.466;3.610;2023-02-25T05:59:10;5.20;99.90
30097;DHT22;16915;51.466;3.610;2023-02-25T06:01:36;5.10;99.90
30097;DHT22;16915;51.466;3.610;2023-02-25T06:04:01;5.10;99.90
30097;DHT22;16915;51.466;3.610;2023-02-25T06:06:29;5.10;99.90
30097;DHT22;16915;51.466;3.610;2023-02-25T06:08:55;5.10;99.90
30097;DHT22;16915;51.466;3.610;2023-02-25T06:11:23;5.10;99.90
30097;DHT22;16915;51.466;3.610;2023-02-25T06:13:53;5.10;99.90
30097;DHT22;16915;51.466;3.610;2023-02-25T06:16:20;5.20;99.90
30097;DHT22;16915;51.466;3.610;2023-02-25T06:18:46;5.20;99.90
30097;DHT22;16915;51.466;3.610;2023-02-25T06:21:13;5.30;99.90
30097;DHT22;16915;51.466;3.610;2023-02-25T06:23:41;5.40;99.90
30097;DHT22;16915;51.466;3.610;2023-02-25T06:26:08;5.40;99.90
30097;DHT22;16915;51.466;3.610;2023-02-25T06:28:36;5.20;99.90
30097;DHT22;16915;51.466;3.610;2023-02-25T06:31:02;5.10;99.90
30097;DHT22;16915;51.466;3.610;2023-02-25T06:33:31;5.00;99.90
30097;DHT22;16915;51.466;3.610;2023-02-25T06:35:56;4.90;99.90
30097;DHT22;16915;51.466;3.610;2023-02-25T06:38:23;4.80;99.90
30097;DHT22;16915;51.466;3.610;2023-02-25T06:40:49;4.80;99.90
30097;DHT22;16915;51.466;3.610;2023-02-25T06:43:15;4.70;99.90
30097;DHT22;16915;51.466;3.610;2023-02-25T06:45:41;4.70;99.90
30097;DHT22;16915;51.466;3.610;2023-02-25T06:48:07;4.70;99.90
30097;DHT22;16915;51.466;3.610;2023-02-25T06:50:33;4.60;99.90
30097;DHT22;16915;51.466;3.610;2023-02-25T06:52:59;4.60;99.90
30097;DHT22;16915;51.466;3.610;2023-02-25T06:55:25;4.70;99.90
30097;DHT22;16915;51.466;3.610;2023-02-25T06:57:50;4.80;99.90
30097;DHT22;16915;51.466;3.610;2023-02-25T07:00:19;4.80;99.90
30097;DHT22;16915;51.466;3.610;2023-02-25T07:02:44;4.80;99.90
30097;DHT22;16915;51.466;3.610;2023-02-25T07:05:10;4.90;99.90
30097;DHT22;16915;51.466;3.610;2023-02-25T07:07:36;4.90;99.90
30097;DHT22;16915;51.466;3.610;2023-02-25T07:10:01;4.90;99.90
30097;DHT22;16915;51.466;3.610;2023-02-25T07:12:27;4.90;99.90
30097;DHT22;16915;51.466;3.610;2023-02-25T07:14:52;4.90;99.90
30097;DHT22;16915;51.466;3.610;2023-02-25T07:17:18;4.90;99.90
30097;DHT22;16915;51.466;3.610;2023-02-25T07:19:44;4.90;99.90
30097;DHT22;16915;51.466;3.610;2023-02-25T07:22:18;4.90;99.90
30097;DHT22;16915;51.466;3.610;2023-02-25T07:24:44;4.90;99.90
30097;DHT22;16915;51.466;3.610;2023-02-25T07:27:12;5.00;99.90
30097;DHT22;16915;51.466;3.610;2023-02-25T07:29:38;5.10;99.90
30097;DHT22;16915;51.466;3.610;2023-02-25T07:32:04;5.30;99.90
30097;DHT22;16915;51.466;3.610;2023-02-25T07:34:30;5.30;99.90
30097;DHT22;16915;51.466;3.610;2023-02-25T07:36:56;5.40;99.90
30097;DHT22;16915;51.466;3.610;2023-02-25T07:39:21;5.40;99.90
30097;DHT22;16915;51.466;3.610;2023-02-25T07:41:47;5.40;99.90
30097;DHT22;16915;51.466;3.610;2023-02-25T07:44:13;5.40;99.90
30097;DHT22;16915;51.466;3.610;2023-02-25T07:46:38;5.30;99.90
30097;DHT22;16915;51.466;3.610;2023-02-25T07:49:05;5.20;99.90
30097;DHT22;16915;51.466;3.610;2023-02-25T07:51:31;5.20;99.90
30097;DHT22;16915;51.466;3.610;2023-02-25T07:53:57;5.10;99.90
30097;DHT22;16915;51.466;3.610;2023-02-25T07:56:26;5.10;99.90
30097;DHT22;16915;51.466;3.610;2023-02-25T07:58:52;5.10;99.90
30097;DHT22;16915;51.466;3.610;2023-02-25T08:01:27;5.10;99.90
30097;DHT22;16915;51.466;3.610;2023-02-25T08:03:57;5.20;99.90
30097;DHT22;16915;51.466;3.610;2023-02-25T08:06:23;5.30;99.90
30097;DHT22;16915;51.466;3.610;2023-02-25T08:08:49;5.40;99.90
30097;DHT22;16915;51.466;3.610;2023-02-25T08:11:21;5.50;99.90
30097;DHT22;16915;51.466;3.610;2023-02-25T08:13:47;5.60;99.90
30097;DHT22;16915;51.466;3.610;2023-02-25T08:16:14;5.70;99.90
30097;DHT22;16915;51.466;3.610;2023-02-25T08:18:40;5.80;99.90
30097;DHT22;16915;51.466;3.610;2023-02-25T08:21:11;5.80;99.90
30097;DHT22;16915;51.466;3.610;2023-02-25T08:23:37;5.90;99.90
30097;DHT22;16915;51.466;3.610;2023-02-25T08:26:04;5.90;99.90
30097;DHT22;16915;51.466;3.610;2023-02-25T08:28:30;6.00;99.90
30097;DHT22;16915;51.466;3.610;2023-02-25T08:30:56;6.10;99.90
30097;DHT22;16915;51.466;3.610;2023-02-25T08:33:22;6.20;99.90
30097;DHT22;16915;51.466;3.610;2023-02-25T08:35:48;6.40;99.90
30097;DHT22;16915;51.466;3.610;2023-02-25T08:38:14;6.50;99.90
30097;DHT22;16915;51.466;3.610;2023-02-25T08:40:40;6.50;99.90
30097;DHT22;16915;51.466;3.610;2023-02-25T08:43:07;6.30;99.90
30097;DHT22;16915;51.466;3.610;2023-02-25T08:45:33;6.20;99.90
30097;DHT22;16915;51.466;3.610;2023-02-25T08:47:59;6.10;99.90
30097;DHT22;16915;51.466;3.610;2023-02-25T08:50:25;6.00;99.90
30097;DHT22;16915;51.466;3.610;2023-02-25T08:52:51;6.00;99.90
30097;DHT22;16915;51.466;3.610;2023-02-25T08:55:17;6.00;99.90
30097;DHT22;16915;51.466;3.610;2023-02-25T08:57:43;6.00;99.90
30097;DHT22;16915;51.466;3.610;2023-02-25T09:00:12;6.10;99.90
30097;DHT22;16915;51.466;3.610;2023-02-25T09:02:41;6.20;99.90
30097;DHT22;16915;51.466;3.610;2023-02-25T09:05:07;6.20;99.90
30097;DHT22;16915;51.466;3.610;2023-02-25T09:07:32;6.30;99.90
30097;DHT22;16915;51.466;3.610;2023-02-25T09:09:58;6.30;99.90
30097;DHT22;16915;51.466;3.610;2023-02-25T09:12:24;6.40;99.90
30097;DHT22;16915;51.466;3.610;2023-02-25T09:14:49;6.50;99.90
30097;DHT22;16915;51.466;3.610;2023-02-25T09:17:15;6.60;99.90
30097;DHT22;16915;51.466;3.610;2023-02-25T09:19:41;6.70;99.90
30097;DHT22;16915;51.466;3.610;2023-02-25T09:22:07;6.80;99.90
30097;DHT22;16915;51.466;3.610;2023-02-25T09:24:33;6.90;99.90
30097;DHT22;16915;51.466;3.610;2023-02-25T09:27:01;7.00;99.90
30097;DHT22;16915;51.466;3.610;2023-02-25T09:29:32;7.10;99.90
30097;DHT22;16915;51.466;3.610;2023-02-25T09:31:58;7.30;99.90
30097;DHT22;16915;51.466;3.610;2023-02-25T09:34:23;7.30;99.90
30097;DHT22;16915;51.466;3.610;2023-02-25T09:36:49;7.40;99.90
30097;DHT22;16915;51.466;3.610;2023-02-25T09:39:14;7.40;99.90
30097;DHT22;16915;51.466;3.610;2023-02-25T09:41:52;7.20;99.90
30097;DHT22;16915;51.466;3.610;2023-02-25T09:46:56;7.00;99.90
30097;DHT22;16915;51.466;3.610;2023-02-25T09:49:54;7.30;99.90
30097;DHT22;16915;51.466;3.610;2023-02-25T09:52:30;7.70;99.90
30097;DHT22;16915;51.466;3.610;2023-02-25T09:55:10;7.70;99.90
30097;DHT22;16915;51.466;3.610;2023-02-25T09:57:40;7.50;99.90
30097;DHT22;16915;51.466;3.610;2023-02-25T10:00:15;7.20;99.90
30097;DHT22;16915;51.466;3.610;2023-02-25T10:05:44;6.80;99.90
30097;DHT22;16915;51.466;3.610;2023-02-25T10:11:06;7.40;99.90
30097;DHT22;16915;51.466;3.610;2023-02-25T10:16:47;8.70;99.90
30097;DHT22;16915;51.466;3.610;2023-02-25T10:19:27;8.60;99.90
30097;DHT22;16915;51.466;3.610;2023-02-25T10:24:45;8.60;99.90
30097;DHT22;16915;51.466;3.610;2023-02-25T10:33:22;9.00;99.90
30097;DHT22;16915;51.466;3.610;2023-02-25T10:38:53;9.70;99.90
30097;DHT22;16915;51.466;3.610;2023-02-25T10:41:21;10.00;99.90
30097;DHT22;16915;51.466;3.610;2023-02-25T10:43:48;10.30;99.90
30097;DHT22;16915;51.466;3.610;2023-02-25T10:46:25;10.30;99.90
30097;DHT22;16915;51.466;3.610;2023-02-25T10:49:02;10.30;99.90
30097;DHT22;16915;51.466;3.610;2023-02-25T10:51:37;10.70;99.90
30097;DHT22;16915;51.466;3.610;2023-02-25T10:54:05;10.80;99.90
30097;DHT22;16915;51.466;3.610;2023-02-25T10:56:40;10.50;99.90
30097;DHT22;16915;51.466;3.610;2023-02-25T11:01:47;10.40;99.90
30097;DHT22;16915;51.466;3.610;2023-02-25T11:04:17;10.80;99.90
30097;DHT22;16915;51.466;3.610;2023-02-25T11:06:43;10.40;99.90
30097;DHT22;16915;51.466;3.610;2023-02-25T11:14:34;9.70;99.90
30097;DHT22;16915;51.466;3.610;2023-02-25T11:17:15;10.50;99.90
30097;DHT22;16915;51.466;3.610;2023-02-25T11:19:51;10.90;99.90
30097;DHT22;16915;51.466;3.610;2023-02-25T11:22:23;10.60;99.90
30097;DHT22;16915;51.466;3.610;2023-02-25T11:25:06;10.60;99.90
30097;DHT22;16915;51.466;3.610;2023-02-25T11:27:37;10.30;99.90
30097;DHT22;16915;51.466;3.610;2023-02-25T11:30:29;9.80;99.90
30097;DHT22;16915;51.466;3.610;2023-02-25T11:32:56;9.80;99.90
30097;DHT22;16915;51.466;3.610;2023-02-25T11:35:43;10.20;99.90
30097;DHT22;16915;51.466;3.610;2023-02-25T11:38:33;9.90;99.90
30097;DHT22;16915;51.466;3.610;2023-02-25T11:40:59;9.70;99.90
30097;DHT22;16915;51.466;3.610;2023-02-25T11:43:38;10.10;99.90
30097;DHT22;16915;51.466;3.610;2023-02-25T11:46:12;9.90;99.90
30097;DHT22;16915;51.466;3.610;2023-02-25T11:48:56;9.50;99.90
30097;DHT22;16915;51.466;3.610;2023-02-25T11:56:45;9.20;99.90
30097;DHT22;16915;51.466;3.610;2023-02-25T12:11:28;11.70;99.90
30097;DHT22;16915;51.466;3.610;2023-02-25T12:14:17;12.50;99.90
30097;DHT22;16915;51.466;3.610;2023-02-25T12:17:10;13.10;99.90
30097;DHT22;16915;51.466;3.610;2023-02-25T12:22:52;11.80;99.90
30097;DHT22;16915;51.466;3.610;2023-02-25T12:25:47;11.20;99.90
30097;DHT22;16915;51.466;3.610;2023-02-25T12:28:36;10.70;99.90
30097;DHT22;16915;51.466;3.610;2023-02-25T12:37:09;10.00;99.90
30097;DHT22;16915;51.466;3.610;2023-02-25T12:42:35;11.30;99.90
30097;DHT22;16915;51.466;3.610;2023-02-25T12:59:32;10.90;99.90
30097;DHT22;16915;51.466;3.610;2023-02-25T13:16:20;9.80;99.90
30097;DHT22;16915;51.466;3.610;2023-02-25T13:32:45;12.00;99.90
30097;DHT22;16915;51.466;3.610;2023-02-25T13:35:30;12.50;99.90
30097;DHT22;16915;51.466;3.610;2023-02-25T13:38:10;13.10;99.90
30097;DHT22;16915;51.466;3.610;2023-02-25T13:40:49;14.00;99.90
30097;DHT22;16915;51.466;3.610;2023-02-25T13:46:39;13.60;99.90
30097;DHT22;16915;51.466;3.610;2023-02-25T13:52:34;12.50;99.90
30097;DHT22;16915;51.466;3.610;2023-02-25T13:55:51;12.00;99.90
30097;DHT22;16915;51.466;3.610;2023-02-25T13:58:35;11.80;99.90
30097;DHT22;16915;51.466;3.610;2023-02-25T14:24:02;9.00;99.90
30097;DHT22;16915;51.466;3.610;2023-02-25T14:32:55;8.30;99.90
30097;DHT22;16915;51.466;3.610;2023-02-25T14:35:34;8.20;99.90
30097;DHT22;16915;51.466;3.610;2023-02-25T14:38:14;8.20;99.90
30097;DHT22;16915;51.466;3.610;2023-02-25T14:43:23;8.10;99.90
30097;DHT22;16915;51.466;3.610;2023-02-25T14:45:59;7.90;99.90
30097;DHT22;16915;51.466;3.610;2023-02-25T14:51:33;7.70;99.90
30097;DHT22;16915;51.466;3.610;2023-02-25T15:02:30;7.50;99.90
30097;DHT22;16915;51.466;3.610;2023-02-25T15:08:10;7.60;99.90
30097;DHT22;16915;51.466;3.610;2023-02-25T15:11:07;7.70;99.90
30097;DHT22;16915;51.466;3.610;2023-02-25T15:16:34;7.90;99.90
30097;DHT22;16915;51.466;3.610;2023-02-25T15:19:31;7.70;99.90
30097;DHT22;16915;51.466;3.610;2023-02-25T15:22:20;7.60;99.90
30097;DHT22;16915;51.466;3.610;2023-02-25T15:24:47;7.40;99.90
30097;DHT22;16915;51.466;3.610;2023-02-25T15:27:42;7.30;99.90
30097;DHT22;16915;51.466;3.610;2023-02-25T15:30:23;7.30;99.90
30097;DHT22;16915;51.466;3.610;2023-02-25T15:33:05;7.20;99.90
30097;DHT22;16915;51.466;3.610;2023-02-25T15:45:37;7.00;99.90
30097;DHT22;16915;51.466;3.610;2023-02-25T15:57:59;6.70;99.90
30097;DHT22;16915;51.466;3.610;2023-02-25T16:05:51;6.60;99.90
30097;DHT22;16915;51.466;3.610;2023-02-25T16:08:23;6.50;99.90
30097;DHT22;16915;51.466;3.610;2023-02-25T16:10:52;6.50;99.90
30097;DHT22;16915;51.466;3.610;2023-02-25T16:13:31;6.40;99.90
30097;DHT22;16915;51.466;3.610;2023-02-25T16:15:57;6.40;99.90
30097;DHT22;16915;51.466;3.610;2023-02-25T16:18:39;6.30;99.90
30097;DHT22;16915;51.466;3.610;2023-02-25T16:21:14;6.30;99.90
30097;DHT22;16915;51.466;3.610;2023-02-25T16:23:43;6.30;99.90
30097;DHT22;16915;51.466;3.610;2023-02-25T16:26:36;6.20;99.90
30097;DHT22;16915;51.466;3.610;2023-02-25T16:32:00;6.30;99.90
30097;DHT22;16915;51.466;3.610;2023-02-25T16:34:52;6.20;99.90
30097;DHT22;16915;51.466;3.610;2023-02-25T16:37:40;6.10;99.90
30097;DHT22;16915;51.466;3.610;2023-02-25T16:40:20;6.10;99.90
30097;DHT22;16915;51.466;3.610;2023-02-25T16:42:47;6.10;99.90
30097;DHT22;16915;51.466;3.610;2023-02-25T16:45:23;6.00;99.90
30097;DHT22;16915;51.466;3.610;2023-02-25T16:48:04;6.00;99.90
30097;DHT22;16915;51.466;3.610;2023-02-25T16:50:31;6.00;99.90
30097;DHT22;16915;51.466;3.610;2023-02-25T16:52:59;5.90;99.90
30097;DHT22;16915;51.466;3.610;2023-02-25T16:55:35;5.80;99.90
30097;DHT22;16915;51.466;3.610;2023-02-25T17:00:53;5.80;99.90
30097;DHT22;16915;51.466;3.610;2023-02-25T17:03:21;5.70;99.90
30097;DHT22;16915;51.466;3.610;2023-02-25T17:06:04;5.70;99.90
30097;DHT22;16915;51.466;3.610;2023-02-25T17:08:30;5.60;99.90
30097;DHT22;16915;51.466;3.610;2023-02-25T17:10:56;5.50;99.90
30097;DHT22;16915;51.466;3.610;2023-02-25T17:13:38;5.50;99.90
30097;DHT22;16915;51.466;3.610;2023-02-25T17:16:05;5.40;99.90
30097;DHT22;16915;51.466;3.610;2023-02-25T17:18:53;5.40;99.90
30097;DHT22;16915;51.466;3.610;2023-02-25T17:21:24;5.30;99.90
30097;DHT22;16915;51.466;3.610;2023-02-25T17:23:51;5.20;99.90
30097;DHT22;16915;51.466;3.610;2023-02-25T17:26:18;5.20;99.90
30097;DHT22;16915;51.466;3.610;2023-02-25T17:28:47;5.10;99.90
30097;DHT22;16915;51.466;3.610;2023-02-25T17:31:16;5.10;99.90
30097;DHT22;16915;51.466;3.610;2023-02-25T17:33:53;5.00;99.90
30097;DHT22;16915;51.466;3.610;2023-02-25T17:36:25;5.00;99.90
30097;DHT22;16915;51.466;3.610;2023-02-25T17:39:03;5.00;99.90
30097;DHT22;16915;51.466;3.610;2023-02-25T17:41:30;4.90;99.90
30097;DHT22;16915;51.466;3.610;2023-02-25T17:43:55;4.90;99.90
30097;DHT22;16915;51.466;3.610;2023-02-25T17:46:31;4.90;99.90
30097;DHT22;16915;51.466;3.610;2023-02-25T17:49:14;4.90;99.90
30097;DHT22;16915;51.466;3.610;2023-02-25T17:51:41;4.90;99.90
30097;DHT22;16915;51.466;3.610;2023-02-25T17:54:15;4.80;99.90
30097;DHT22;16915;51.466;3.610;2023-02-25T17:56:43;4.80;99.90
30097;DHT22;16915;51.466;3.610;2023-02-25T18:01:51;4.70;99.90
30097;DHT22;16915;51.466;3.610;2023-02-25T18:06:46;4.60;99.90
30097;DHT22;16915;51.466;3.610;2023-02-25T18:09:28;4.60;99.90
30097;DHT22;16915;51.466;3.610;2023-02-25T18:11:57;4.60;99.90
30097;DHT22;16915;51.466;3.610;2023-02-25T18:16:52;4.40;99.90
30097;DHT22;16915;51.466;3.610;2023-02-25T18:19:44;4.30;99.90
30097;DHT22;16915;51.466;3.610;2023-02-25T18:22:40;4.30;99.90
30097;DHT22;16915;51.466;3.610;2023-02-25T18:25:33;4.30;99.90
30097;DHT22;16915;51.466;3.610;2023-02-25T18:28:00;4.20;99.90
30097;DHT22;16915;51.466;3.610;2023-02-25T18:30:28;4.10;99.90
30097;DHT22;16915;51.466;3.610;2023-02-25T18:32:54;4.10;99.90
30097;DHT22;16915;51.466;3.610;2023-02-25T18:35:22;4.10;99.90
30097;DHT22;16915;51.466;3.610;2023-02-25T18:37:50;4.10;99.90
30097;DHT22;16915;51.466;3.610;2023-02-25T18:42:47;4.10;99.90
30097;DHT22;16915;51.466;3.610;2023-02-25T18:45:18;4.10;99.90
30097;DHT22;16915;51.466;3.610;2023-02-25T18:47:45;4.00;99.90
30097;DHT22;16915;51.466;3.610;2023-02-25T18:50:11;4.00;99.90
30097;DHT22;16915;51.466;3.610;2023-02-25T18:52:38;3.90;99.90
30097;DHT22;16915;51.466;3.610;2023-02-25T18:55:06;3.80;99.90
30097;DHT22;16915;51.466;3.610;2023-02-25T18:57:32;3.80;99.90
30097;DHT22;16915;51.466;3.610;2023-02-25T18:59:58;3.80;99.90
30097;DHT22;16915;51.466;3.610;2023-02-25T19:02:32;3.80;99.90
30097;DHT22;16915;51.466;3.610;2023-02-25T19:04:58;3.70;99.90
30097;DHT22;16915;51.466;3.610;2023-02-25T19:07:30;3.70;99.90
30097;DHT22;16915;51.466;3.610;2023-02-25T19:09:57;3.60;99.90
30097;DHT22;16915;51.466;3.610;2023-02-25T19:12:23;3.50;99.90
30097;DHT22;16915;51.466;3.610;2023-02-25T19:15:02;3.60;99.90
30097;DHT22;16915;51.466;3.610;2023-02-25T19:17:28;3.50;99.90
30097;DHT22;16915;51.466;3.610;2023-02-25T19:19:54;3.40;99.90
30097;DHT22;16915;51.466;3.610;2023-02-25T19:22:22;3.40;99.90
30097;DHT22;16915;51.466;3.610;2023-02-25T19:24:48;3.30;99.90
30097;DHT22;16915;51.466;3.610;2023-02-25T19:27:21;3.30;99.90
30097;DHT22;16915;51.466;3.610;2023-02-25T19:29:48;3.30;99.90
30097;DHT22;16915;51.466;3.610;2023-02-25T19:32:14;3.30;99.90
30097;DHT22;16915;51.466;3.610;2023-02-25T19:34:41;3.20;99.90
30097;DHT22;16915;51.466;3.610;2023-02-25T19:37:08;3.20;99.90
30097;DHT22;16915;51.466;3.610;2023-02-25T19:39:33;3.20;99.90
30097;DHT22;16915;51.466;3.610;2023-02-25T19:41:59;3.20;99.90
30097;DHT22;16915;51.466;3.610;2023-02-25T19:44:25;3.20;99.90